EWG1GM LOWW-EDDK
Flight info
| Callsign | EWG1GM |
|---|---|
| Flight time | 1h 16m |
| Altitude | 32000 |
| Route | BUWUT DCT DITIS DCT RAPET T843 VELIS DCT MASEK T841 ERNEP ERNEP1B |
| Aircraft | A320/M-SDE3FGHIRWY/LB1 |
Departure
| Time | 2026-04-26 10:55 |
|---|---|
| Airport | Vienna International Airport (LOWW) |
Arrival
| Time | 2026-04-26 12:11 |
|---|---|
| Airport | Cologne Bonn Airport (EDDK) |
| Time | Latitude | Longitude | Altitude | Speed | Heading |
|---|---|---|---|---|---|
| 2026-04-26 10:27 | 48.12115 | 16.55514 | 590 ft | 0 kts | 296° |
| 2026-04-26 10:45 | 48.12107 | 16.55538 | 590 ft | 4 kts | 279° |
| 2026-04-26 10:45 | 48.12111 | 16.55574 | 590 ft | 4 kts | 222° |
| 2026-04-26 10:46 | 48.12118 | 16.55583 | 590 ft | 0 kts | 205° |
| 2026-04-26 10:48 | 48.12113 | 16.55579 | 590 ft | 3 kts | 206° |
| 2026-04-26 10:48 | 48.12084 | 16.55557 | 591 ft | 7 kts | 206° |
| 2026-04-26 10:48 | 48.12041 | 16.55527 | 592 ft | 5 kts | 206° |
| 2026-04-26 10:49 | 48.12010 | 16.55504 | 593 ft | 4 kts | 206° |
| 2026-04-26 10:49 | 48.11968 | 16.55474 | 594 ft | 6 kts | 205° |
| 2026-04-26 10:49 | 48.11934 | 16.55449 | 594 ft | 6 kts | 205° |
| 2026-04-26 10:49 | 48.11860 | 16.55428 | 594 ft | 14 kts | 191° |
| 2026-04-26 10:50 | 48.11786 | 16.55505 | 596 ft | 13 kts | 116° |
| 2026-04-26 10:50 | 48.11762 | 16.55576 | 598 ft | 10 kts | 116° |
| 2026-04-26 10:50 | 48.11718 | 16.55714 | 600 ft | 15 kts | 115° |
| 2026-04-26 10:50 | 48.11670 | 16.55861 | 602 ft | 14 kts | 116° |
| 2026-04-26 10:51 | 48.11630 | 16.55981 | 604 ft | 12 kts | 116° |
| 2026-04-26 10:51 | 48.11528 | 16.56294 | 601 ft | 20 kts | 116° |
| 2026-04-26 10:51 | 48.11467 | 16.56481 | 599 ft | 20 kts | 116° |
| 2026-04-26 10:52 | 48.11414 | 16.56651 | 601 ft | 17 kts | 115° |
| 2026-04-26 10:52 | 48.11367 | 16.56796 | 603 ft | 14 kts | 116° |
| 2026-04-26 10:52 | 48.11330 | 16.56907 | 606 ft | 10 kts | 116° |
| 2026-04-26 10:52 | 48.11296 | 16.57010 | 617 ft | 14 kts | 116° |
| 2026-04-26 10:53 | 48.11243 | 16.57169 | 608 ft | 16 kts | 116° |
| 2026-04-26 10:53 | 48.11186 | 16.57238 | 608 ft | 10 kts | 186° |
| 2026-04-26 10:53 | 48.11130 | 16.57196 | 621 ft | 8 kts | 206° |
| 2026-04-26 10:54 | 48.11056 | 16.57100 | 610 ft | 5 kts | 287° |
| 2026-04-26 10:54 | 48.11103 | 16.56955 | 618 ft | 42 kts | 296° |
| 2026-04-26 10:54 | 48.11345 | 16.56214 | 600 ft | 112 kts | 296° |
| 2026-04-26 10:54 | 48.11772 | 16.54902 | 622 ft | 165 kts | 303° |
| 2026-04-26 10:55 | 48.12171 | 16.53301 | 1399 ft | 167 kts | 276° |
| 2026-04-26 10:55 | 48.11727 | 16.51659 | 2196 ft | 188 kts | 230° |
| 2026-04-26 10:55 | 48.10630 | 16.50350 | 2712 ft | 209 kts | 221° |
| 2026-04-26 10:55 | 48.09846 | 16.49493 | 3292 ft | 212 kts | 220° |
| 2026-04-26 10:56 | 48.08237 | 16.47729 | 4525 ft | 213 kts | 227° |
| 2026-04-26 10:56 | 48.07316 | 16.46027 | 5330 ft | 215 kts | 246° |
| 2026-04-26 10:56 | 48.06652 | 16.43908 | 5762 ft | 234 kts | 250° |
| 2026-04-26 10:56 | 48.05964 | 16.41578 | 6311 ft | 255 kts | 250° |
| 2026-04-26 10:57 | 48.05234 | 16.39104 | 7112 ft | 264 kts | 250° |
| 2026-04-26 10:57 | 48.04480 | 16.36564 | 7996 ft | 270 kts | 250° |
| 2026-04-26 10:57 | 48.03721 | 16.33976 | 8911 ft | 274 kts | 254° |
| 2026-04-26 10:57 | 48.03343 | 16.31233 | 9762 ft | 274 kts | 271° |
| 2026-04-26 10:58 | 48.03437 | 16.28339 | 10355 ft | 289 kts | 276° |
| 2026-04-26 10:58 | 48.03580 | 16.25231 | 10747 ft | 309 kts | 276° |
| 2026-04-26 10:58 | 48.03842 | 16.22012 | 11429 ft | 314 kts | 284° |
| 2026-04-26 10:58 | 48.04553 | 16.18924 | 12240 ft | 316 kts | 296° |
| 2026-04-26 10:59 | 48.05579 | 16.16006 | 13063 ft | 319 kts | 298° |
| 2026-04-26 10:59 | 48.06624 | 16.13060 | 13879 ft | 322 kts | 298° |
| 2026-04-26 10:59 | 48.07680 | 16.10077 | 14610 ft | 326 kts | 298° |
| 2026-04-26 10:59 | 48.08741 | 16.07062 | 15317 ft | 329 kts | 297° |
| 2026-04-26 11:00 | 48.09811 | 16.04015 | 16009 ft | 332 kts | 297° |
| 2026-04-26 11:00 | 48.10536 | 16.01945 | 16494 ft | 334 kts | 297° |
| 2026-04-26 11:00 | 48.11608 | 15.98894 | 17184 ft | 336 kts | 298° |
| 2026-04-26 11:00 | 48.12966 | 15.96024 | 17859 ft | 341 kts | 311° |
| 2026-04-26 11:01 | 48.14776 | 15.93674 | 18545 ft | 347 kts | 324° |
| 2026-04-26 11:01 | 48.16939 | 15.92007 | 19131 ft | 354 kts | 335° |
| 2026-04-26 11:01 | 48.19243 | 15.90630 | 19747 ft | 357 kts | 335° |
| 2026-04-26 11:01 | 48.21563 | 15.89244 | 20344 ft | 360 kts | 335° |
| 2026-04-26 11:02 | 48.23897 | 15.87850 | 20941 ft | 363 kts | 334° |
| 2026-04-26 11:02 | 48.26252 | 15.86439 | 21535 ft | 366 kts | 334° |
| 2026-04-26 11:02 | 48.28628 | 15.85009 | 22119 ft | 369 kts | 334° |
| 2026-04-26 11:02 | 48.31020 | 15.83561 | 22708 ft | 372 kts | 334° |
| 2026-04-26 11:03 | 48.33436 | 15.82094 | 23289 ft | 376 kts | 334° |
| 2026-04-26 11:03 | 48.35879 | 15.80609 | 23852 ft | 379 kts | 334° |
| 2026-04-26 11:03 | 48.38333 | 15.79118 | 24330 ft | 382 kts | 334° |
| 2026-04-26 11:03 | 48.40804 | 15.77618 | 24804 ft | 385 kts | 334° |
| 2026-04-26 11:04 | 48.43264 | 15.76124 | 25270 ft | 387 kts | 333° |
| 2026-04-26 11:04 | 48.45770 | 15.74601 | 25736 ft | 389 kts | 333° |
| 2026-04-26 11:04 | 48.48294 | 15.73069 | 26186 ft | 391 kts | 333° |
| 2026-04-26 11:04 | 48.50827 | 15.71529 | 26632 ft | 394 kts | 333° |
| 2026-04-26 11:05 | 48.53378 | 15.69971 | 27066 ft | 396 kts | 333° |
| 2026-04-26 11:05 | 48.55946 | 15.68393 | 27495 ft | 399 kts | 333° |
| 2026-04-26 11:05 | 48.58521 | 15.66811 | 27905 ft | 401 kts | 333° |
| 2026-04-26 11:05 | 48.61113 | 15.65218 | 28323 ft | 403 kts | 333° |
| 2026-04-26 11:06 | 48.63724 | 15.63616 | 28723 ft | 406 kts | 333° |
| 2026-04-26 11:06 | 48.66316 | 15.61911 | 29119 ft | 405 kts | 327° |
| 2026-04-26 11:06 | 48.68675 | 15.59630 | 29503 ft | 401 kts | 317° |
| 2026-04-26 11:06 | 48.70713 | 15.56777 | 29876 ft | 398 kts | 308° |
| 2026-04-26 11:07 | 48.72380 | 15.53449 | 30237 ft | 397 kts | 299° |
| 2026-04-26 11:07 | 48.73742 | 15.49808 | 30546 ft | 398 kts | 296° |
| 2026-04-26 11:07 | 48.75089 | 15.46123 | 30844 ft | 400 kts | 296° |
| 2026-04-26 11:07 | 48.76424 | 15.42477 | 31143 ft | 402 kts | 296° |
| 2026-04-26 11:08 | 48.77784 | 15.38766 | 31428 ft | 403 kts | 296° |
| 2026-04-26 11:08 | 48.79146 | 15.35039 | 31704 ft | 405 kts | 296° |
| 2026-04-26 11:08 | 48.80537 | 15.31318 | 32029 ft | 406 kts | 300° |
| 2026-04-26 11:08 | 48.82163 | 15.27798 | 32228 ft | 406 kts | 302° |
| 2026-04-26 11:09 | 48.83791 | 15.24379 | 32255 ft | 391 kts | 303° |
| 2026-04-26 11:09 | 48.85356 | 15.21094 | 32261 ft | 379 kts | 302° |
| 2026-04-26 11:09 | 48.88400 | 15.14657 | 32261 ft | 373 kts | 302° |
| 2026-04-26 11:10 | 48.91433 | 15.08250 | 32266 ft | 373 kts | 303° |
| 2026-04-26 11:10 | 48.94530 | 15.01912 | 32266 ft | 373 kts | 303° |
| 2026-04-26 11:11 | 48.97648 | 14.95579 | 32268 ft | 373 kts | 303° |
| 2026-04-26 11:11 | 49.00743 | 14.89230 | 32269 ft | 373 kts | 303° |
| 2026-04-26 11:12 | 49.03827 | 14.82878 | 32264 ft | 373 kts | 303° |
| 2026-04-26 11:12 | 49.06910 | 14.76515 | 32265 ft | 373 kts | 303° |
| 2026-04-26 11:13 | 49.09992 | 14.70140 | 32267 ft | 373 kts | 303° |
| 2026-04-26 11:13 | 49.13057 | 14.63760 | 32266 ft | 373 kts | 303° |
| 2026-04-26 11:14 | 49.16131 | 14.57363 | 32266 ft | 373 kts | 303° |
| 2026-04-26 11:14 | 49.19180 | 14.51002 | 32269 ft | 373 kts | 303° |
| 2026-04-26 11:15 | 49.22252 | 14.44588 | 32267 ft | 374 kts | 303° |
| 2026-04-26 11:15 | 49.25328 | 14.38152 | 32265 ft | 374 kts | 303° |
| 2026-04-26 11:16 | 49.28395 | 14.31710 | 32268 ft | 374 kts | 303° |
| 2026-04-26 11:16 | 49.31456 | 14.25262 | 32267 ft | 374 kts | 303° |
| 2026-04-26 11:17 | 49.34514 | 14.18802 | 32269 ft | 374 kts | 303° |
| 2026-04-26 11:17 | 49.37551 | 14.12372 | 32262 ft | 374 kts | 303° |
| 2026-04-26 11:18 | 49.40606 | 14.05894 | 32263 ft | 375 kts | 303° |
| 2026-04-26 11:18 | 49.43664 | 13.99402 | 32267 ft | 375 kts | 302° |
| 2026-04-26 11:19 | 49.46717 | 13.92897 | 32266 ft | 375 kts | 302° |
| 2026-04-26 11:19 | 49.49764 | 13.86382 | 32266 ft | 375 kts | 302° |
| 2026-04-26 11:20 | 49.52297 | 13.80962 | 32265 ft | 375 kts | 302° |
| 2026-04-26 11:20 | 49.55859 | 13.73322 | 32269 ft | 376 kts | 302° |
| 2026-04-26 11:21 | 49.58901 | 13.66770 | 32273 ft | 376 kts | 302° |
| 2026-04-26 11:21 | 49.61941 | 13.60199 | 32277 ft | 376 kts | 302° |
| 2026-04-26 11:22 | 49.64979 | 13.53626 | 32282 ft | 376 kts | 302° |
| 2026-04-26 11:22 | 49.68017 | 13.47046 | 32281 ft | 376 kts | 302° |
| 2026-04-26 11:23 | 49.71029 | 13.40512 | 32286 ft | 376 kts | 302° |
| 2026-04-26 11:23 | 49.74053 | 13.33913 | 32282 ft | 376 kts | 302° |
| 2026-04-26 11:24 | 49.77080 | 13.27300 | 32282 ft | 376 kts | 302° |
| 2026-04-26 11:24 | 49.80110 | 13.20687 | 32280 ft | 376 kts | 302° |
| 2026-04-26 11:25 | 49.83125 | 13.14064 | 32274 ft | 376 kts | 302° |
| 2026-04-26 11:25 | 49.86140 | 13.07415 | 32270 ft | 377 kts | 302° |
| 2026-04-26 11:26 | 49.89144 | 13.00783 | 32261 ft | 377 kts | 302° |
| 2026-04-26 11:26 | 49.92155 | 12.94121 | 32252 ft | 377 kts | 302° |
| 2026-04-26 11:27 | 49.95162 | 12.87456 | 32254 ft | 377 kts | 302° |
| 2026-04-26 11:27 | 49.98169 | 12.80774 | 32258 ft | 377 kts | 302° |
| 2026-04-26 11:28 | 50.01174 | 12.74082 | 32258 ft | 377 kts | 302° |
| 2026-04-26 11:28 | 50.04165 | 12.67385 | 32256 ft | 377 kts | 302° |
| 2026-04-26 11:29 | 50.07156 | 12.60680 | 32258 ft | 377 kts | 302° |
| 2026-04-26 11:29 | 50.10130 | 12.54027 | 32257 ft | 377 kts | 302° |
| 2026-04-26 11:30 | 50.12634 | 12.48405 | 32250 ft | 376 kts | 302° |
| 2026-04-26 11:30 | 50.16092 | 12.40586 | 32255 ft | 376 kts | 301° |
| 2026-04-26 11:31 | 50.18846 | 12.33690 | 32261 ft | 373 kts | 291° |
| 2026-04-26 11:31 | 50.20305 | 12.25947 | 32265 ft | 371 kts | 282° |
| 2026-04-26 11:32 | 50.21536 | 12.18106 | 32269 ft | 372 kts | 282° |
| 2026-04-26 11:32 | 50.22764 | 12.10305 | 32272 ft | 372 kts | 282° |
| 2026-04-26 11:33 | 50.23993 | 12.02443 | 32274 ft | 373 kts | 282° |
| 2026-04-26 11:33 | 50.25217 | 11.94554 | 32277 ft | 373 kts | 282° |
| 2026-04-26 11:34 | 50.26446 | 11.86657 | 32280 ft | 374 kts | 282° |
| 2026-04-26 11:34 | 50.27667 | 11.78797 | 32282 ft | 374 kts | 282° |
| 2026-04-26 11:35 | 50.28891 | 11.70877 | 32277 ft | 374 kts | 282° |
| 2026-04-26 11:35 | 50.29901 | 11.64289 | 32277 ft | 375 kts | 282° |
| 2026-04-26 11:36 | 50.31314 | 11.55009 | 32274 ft | 375 kts | 282° |
| 2026-04-26 11:36 | 50.32500 | 11.47037 | 32271 ft | 376 kts | 282° |
| 2026-04-26 11:37 | 50.33671 | 11.39108 | 32268 ft | 377 kts | 282° |
| 2026-04-26 11:37 | 50.34849 | 11.31111 | 32267 ft | 377 kts | 282° |
| 2026-04-26 11:38 | 50.36019 | 11.23096 | 32262 ft | 377 kts | 282° |
| 2026-04-26 11:38 | 50.37189 | 11.15070 | 32261 ft | 378 kts | 282° |
| 2026-04-26 11:39 | 50.38362 | 11.07044 | 32259 ft | 378 kts | 282° |
| 2026-04-26 11:39 | 50.39533 | 10.98995 | 32260 ft | 379 kts | 282° |
| 2026-04-26 11:40 | 50.40694 | 10.90933 | 32259 ft | 379 kts | 282° |
| 2026-04-26 11:40 | 50.41846 | 10.82873 | 32267 ft | 380 kts | 281° |
| 2026-04-26 11:42 | 50.46294 | 10.51826 | 32262 ft | 383 kts | 282° |
| 2026-04-26 11:43 | 50.47989 | 10.43907 | 32267 ft | 385 kts | 294° |
| 2026-04-26 11:43 | 50.50295 | 10.36301 | 32265 ft | 386 kts | 294° |
| 2026-04-26 11:44 | 50.52587 | 10.28665 | 32265 ft | 387 kts | 294° |
| 2026-04-26 11:44 | 50.54872 | 10.21008 | 32264 ft | 387 kts | 294° |
| 2026-04-26 11:45 | 50.57171 | 10.13329 | 32264 ft | 388 kts | 294° |
| 2026-04-26 11:45 | 50.59447 | 10.05689 | 32267 ft | 388 kts | 294° |
| 2026-04-26 11:46 | 50.61730 | 9.97984 | 32268 ft | 388 kts | 294° |
| 2026-04-26 11:46 | 50.64008 | 9.90259 | 32274 ft | 389 kts | 294° |
| 2026-04-26 11:47 | 50.66293 | 9.82504 | 32268 ft | 389 kts | 294° |
| 2026-04-26 11:47 | 50.68570 | 9.74740 | 32276 ft | 390 kts | 294° |
| 2026-04-26 11:48 | 50.70837 | 9.66982 | 32271 ft | 390 kts | 294° |
| 2026-04-26 11:48 | 50.73108 | 9.59201 | 32277 ft | 390 kts | 294° |
| 2026-04-26 11:49 | 50.74263 | 9.55406 | 31998 ft | 386 kts | 295° |
| 2026-04-26 11:49 | 50.75462 | 9.51638 | 31543 ft | 383 kts | 296° |
| 2026-04-26 11:49 | 50.76674 | 9.47908 | 31091 ft | 380 kts | 296° |
| 2026-04-26 11:49 | 50.77879 | 9.44212 | 30635 ft | 378 kts | 296° |
| 2026-04-26 11:50 | 50.79074 | 9.40517 | 30162 ft | 375 kts | 296° |
| 2026-04-26 11:50 | 50.80253 | 9.36843 | 29647 ft | 373 kts | 295° |
| 2026-04-26 11:50 | 50.81421 | 9.33184 | 29157 ft | 371 kts | 295° |
| 2026-04-26 11:50 | 50.82575 | 9.29550 | 28698 ft | 368 kts | 295° |
| 2026-04-26 11:51 | 50.83718 | 9.25944 | 28260 ft | 366 kts | 295° |
| 2026-04-26 11:51 | 50.84138 | 9.24621 | 28074 ft | 365 kts | 295° |
| 2026-04-26 11:51 | 50.84892 | 9.22249 | 27769 ft | 363 kts | 295° |
| 2026-04-26 11:51 | 50.86016 | 9.18684 | 27344 ft | 361 kts | 295° |
| 2026-04-26 11:52 | 50.87133 | 9.15130 | 26886 ft | 359 kts | 295° |
| 2026-04-26 11:52 | 50.88239 | 9.11591 | 26385 ft | 359 kts | 295° |
| 2026-04-26 11:52 | 50.89350 | 9.08037 | 25880 ft | 359 kts | 295° |
| 2026-04-26 11:52 | 50.90460 | 9.04500 | 25396 ft | 358 kts | 295° |
| 2026-04-26 11:53 | 50.91568 | 9.00977 | 24916 ft | 358 kts | 296° |
| 2026-04-26 11:53 | 50.92676 | 8.97447 | 24443 ft | 357 kts | 296° |
| 2026-04-26 11:53 | 50.93762 | 8.93974 | 23983 ft | 356 kts | 296° |
| 2026-04-26 11:54 | 50.95976 | 8.86956 | 22902 ft | 355 kts | 296° |
| 2026-04-26 11:54 | 50.97099 | 8.83467 | 22362 ft | 355 kts | 296° |
| 2026-04-26 11:54 | 50.98223 | 8.79978 | 21846 ft | 355 kts | 296° |
| 2026-04-26 11:54 | 50.99347 | 8.76484 | 21322 ft | 355 kts | 296° |
| 2026-04-26 11:55 | 51.00446 | 8.72969 | 20807 ft | 354 kts | 292° |
| 2026-04-26 11:55 | 51.01137 | 8.69226 | 20296 ft | 353 kts | 279° |
| 2026-04-26 11:55 | 51.01261 | 8.65351 | 19811 ft | 350 kts | 266° |
| 2026-04-26 11:55 | 51.00901 | 8.61562 | 19328 ft | 344 kts | 260° |
| 2026-04-26 11:56 | 51.00485 | 8.57848 | 18855 ft | 339 kts | 260° |
| 2026-04-26 11:56 | 51.00078 | 8.54184 | 18356 ft | 334 kts | 261° |
| 2026-04-26 11:56 | 50.99679 | 8.50566 | 17815 ft | 330 kts | 261° |
| 2026-04-26 11:56 | 50.99290 | 8.47039 | 17298 ft | 327 kts | 261° |
| 2026-04-26 11:57 | 50.98897 | 8.43504 | 16777 ft | 324 kts | 261° |
| 2026-04-26 11:57 | 50.98503 | 8.40003 | 16270 ft | 321 kts | 261° |
| 2026-04-26 11:57 | 50.98109 | 8.36525 | 15770 ft | 318 kts | 261° |
| 2026-04-26 11:57 | 50.97716 | 8.33082 | 15277 ft | 316 kts | 261° |
| 2026-04-26 11:58 | 50.97319 | 8.29664 | 14790 ft | 313 kts | 258° |
| 2026-04-26 11:58 | 50.96624 | 8.26396 | 14309 ft | 313 kts | 246° |
| 2026-04-26 11:58 | 50.95624 | 8.23335 | 13808 ft | 311 kts | 244° |
| 2026-04-26 11:58 | 50.94621 | 8.20303 | 13272 ft | 309 kts | 244° |
| 2026-04-26 11:59 | 50.93622 | 8.17287 | 12755 ft | 307 kts | 244° |
| 2026-04-26 11:59 | 50.92630 | 8.14294 | 12244 ft | 305 kts | 244° |
| 2026-04-26 11:59 | 50.91648 | 8.11331 | 11743 ft | 303 kts | 244° |
| 2026-04-26 11:59 | 50.90684 | 8.08408 | 11254 ft | 301 kts | 245° |
| 2026-04-26 12:00 | 50.89719 | 8.05480 | 10749 ft | 299 kts | 245° |
| 2026-04-26 12:00 | 50.88758 | 8.02574 | 10368 ft | 293 kts | 245° |
| 2026-04-26 12:00 | 50.87816 | 7.99747 | 10236 ft | 288 kts | 245° |
| 2026-04-26 12:00 | 50.86893 | 7.96973 | 10269 ft | 287 kts | 245° |
| 2026-04-26 12:01 | 50.85962 | 7.94167 | 10282 ft | 289 kts | 245° |
| 2026-04-26 12:01 | 50.85030 | 7.91354 | 10279 ft | 288 kts | 245° |
| 2026-04-26 12:01 | 50.84092 | 7.88542 | 10279 ft | 288 kts | 245° |
| 2026-04-26 12:01 | 50.83153 | 7.85733 | 10279 ft | 288 kts | 245° |
| 2026-04-26 12:02 | 50.82217 | 7.82933 | 10278 ft | 288 kts | 245° |
| 2026-04-26 12:02 | 50.81289 | 7.80160 | 9962 ft | 290 kts | 245° |
| 2026-04-26 12:02 | 50.80344 | 7.77340 | 9560 ft | 289 kts | 244° |
| 2026-04-26 12:02 | 50.79406 | 7.74550 | 9176 ft | 287 kts | 244° |
| 2026-04-26 12:03 | 50.78472 | 7.71765 | 8780 ft | 285 kts | 244° |
| 2026-04-26 12:03 | 50.77544 | 7.68999 | 8400 ft | 284 kts | 244° |
| 2026-04-26 12:03 | 50.76622 | 7.66260 | 8014 ft | 279 kts | 244° |
| 2026-04-26 12:03 | 50.75742 | 7.63654 | 7639 ft | 267 kts | 244° |
| 2026-04-26 12:04 | 50.74887 | 7.61115 | 7276 ft | 258 kts | 244° |
| 2026-04-26 12:04 | 50.74052 | 7.58636 | 6916 ft | 255 kts | 244° |
| 2026-04-26 12:04 | 50.73221 | 7.56171 | 6546 ft | 253 kts | 244° |
| 2026-04-26 12:04 | 50.72395 | 7.53730 | 6157 ft | 252 kts | 243° |
| 2026-04-26 12:05 | 50.71565 | 7.51276 | 5774 ft | 253 kts | 243° |
| 2026-04-26 12:05 | 50.70757 | 7.48863 | 5398 ft | 252 kts | 243° |
| 2026-04-26 12:05 | 50.69947 | 7.46417 | 5018 ft | 250 kts | 244° |
| 2026-04-26 12:05 | 50.69309 | 7.43867 | 4627 ft | 250 kts | 253° |
| 2026-04-26 12:06 | 50.69154 | 7.41184 | 4233 ft | 246 kts | 284° |
| 2026-04-26 12:06 | 50.69980 | 7.38910 | 3859 ft | 239 kts | 316° |
| 2026-04-26 12:06 | 50.71192 | 7.37158 | 3478 ft | 234 kts | 319° |
| 2026-04-26 12:06 | 50.72399 | 7.35462 | 3092 ft | 230 kts | 318° |
| 2026-04-26 12:07 | 50.73548 | 7.33820 | 3002 ft | 214 kts | 318° |
| 2026-04-26 12:07 | 50.74602 | 7.32306 | 3007 ft | 202 kts | 318° |
| 2026-04-26 12:07 | 50.75628 | 7.30832 | 2922 ft | 195 kts | 318° |
| 2026-04-26 12:07 | 50.76620 | 7.29406 | 2744 ft | 189 kts | 318° |
| 2026-04-26 12:08 | 50.77584 | 7.28018 | 2483 ft | 186 kts | 318° |
| 2026-04-26 12:08 | 50.78530 | 7.26657 | 2209 ft | 178 kts | 318° |
| 2026-04-26 12:08 | 50.79398 | 7.25405 | 2014 ft | 159 kts | 318° |
| 2026-04-26 12:08 | 50.80183 | 7.24274 | 1782 ft | 146 kts | 318° |
| 2026-04-26 12:09 | 50.80910 | 7.23225 | 1593 ft | 139 kts | 318° |
| 2026-04-26 12:09 | 50.81615 | 7.22209 | 1397 ft | 136 kts | 318° |
| 2026-04-26 12:09 | 50.82298 | 7.21224 | 1208 ft | 134 kts | 319° |
| 2026-04-26 12:09 | 50.82984 | 7.20237 | 1045 ft | 133 kts | 319° |
| 2026-04-26 12:10 | 50.83667 | 7.19248 | 839 ft | 133 kts | 318° |
| 2026-04-26 12:10 | 50.84348 | 7.18263 | 635 ft | 132 kts | 319° |
| 2026-04-26 12:10 | 50.85030 | 7.17277 | 474 ft | 133 kts | 319° |
| 2026-04-26 12:10 | 50.85703 | 7.16296 | 323 ft | 131 kts | 319° |
| 2026-04-26 12:11 | 50.86300 | 7.15439 | 288 ft | 92 kts | 317° |
| 2026-04-26 12:11 | 50.86703 | 7.14858 | 270 ft | 65 kts | 317° |
| 2026-04-26 12:11 | 50.86862 | 7.14539 | 261 ft | 34 kts | 291° |
| 2026-04-26 12:11 | 50.86896 | 7.14244 | 256 ft | 25 kts | 279° |
| 2026-04-26 12:12 | 50.86923 | 7.13989 | 252 ft | 22 kts | 278° |
| 2026-04-26 12:12 | 50.87023 | 7.13780 | 243 ft | 24 kts | 316° |
| 2026-04-26 12:12 | 50.87111 | 7.13652 | 240 ft | 19 kts | 317° |
| 2026-04-26 12:12 | 50.87181 | 7.13551 | 237 ft | 22 kts | 318° |
| 2026-04-26 12:13 | 50.87353 | 7.13302 | 232 ft | 27 kts | 317° |
| 2026-04-26 12:13 | 50.87496 | 7.13097 | 232 ft | 28 kts | 318° |
| 2026-04-26 12:13 | 50.87645 | 7.12880 | 232 ft | 30 kts | 317° |
| 2026-04-26 12:13 | 50.87768 | 7.12700 | 232 ft | 19 kts | 317° |
| 2026-04-26 12:14 | 50.87827 | 7.12620 | 232 ft | 10 kts | 322° |
| 2026-04-26 12:14 | 50.87861 | 7.12526 | 232 ft | 9 kts | 287° |
| 2026-04-26 12:14 | 50.87871 | 7.12471 | 232 ft | 2 kts | 287° |
| 2026-04-26 12:14 | 50.87873 | 7.12462 | 232 ft | 1 kts | 287° |
| 2026-04-26 12:15 | 50.87873 | 7.12461 | 232 ft | 0 kts | 287° |